sensor_id;sensor_type;location;lat;lon;timestamp;pressure;altitude;pressure_sealevel;temperature;humidity
13952;BME280;39535;52.192;9.886;2023-08-20T00:00:20;100827.78;;;21.96;100.00
13952;BME280;39535;52.192;9.886;2023-08-20T00:02:50;100831.78;;;21.89;100.00
13952;BME280;39535;52.192;9.886;2023-08-20T00:05:18;100837.09;;;21.89;100.00
13952;BME280;39535;52.192;9.886;2023-08-20T00:07:45;100828.75;;;21.80;100.00
13952;BME280;39535;52.192;9.886;2023-08-20T00:10:11;100825.72;;;21.87;100.00
13952;BME280;39535;52.192;9.886;2023-08-20T00:12:39;100836.72;;;21.80;100.00
13952;BME280;39535;52.192;9.886;2023-08-20T00:15:06;100849.50;;;21.88;100.00
13952;BME280;39535;52.192;9.886;2023-08-20T00:17:34;100838.16;;;21.56;100.00
13952;BME280;39535;52.192;9.886;2023-08-20T00:20:01;100837.72;;;21.78;100.00
13952;BME280;39535;52.192;9.886;2023-08-20T00:22:33;100844.19;;;21.88;100.00
13952;BME280;39535;52.192;9.886;2023-08-20T00:25:00;100863.69;;;22.03;100.00
13952;BME280;39535;52.192;9.886;2023-08-20T00:27:28;100869.00;;;21.89;100.00
13952;BME280;39535;52.192;9.886;2023-08-20T00:29:56;100870.16;;;21.99;100.00
13952;BME280;39535;52.192;9.886;2023-08-20T00:32:22;100883.06;;;21.91;100.00
13952;BME280;39535;52.192;9.886;2023-08-20T00:34:49;100887.84;;;21.84;100.00
13952;BME280;39535;52.192;9.886;2023-08-20T00:37:15;100888.56;;;22.02;100.00
13952;BME280;39535;52.192;9.886;2023-08-20T00:39:42;100901.16;;;22.14;100.00
13952;BME280;39535;52.192;9.886;2023-08-20T00:42:09;100902.13;;;22.28;100.00
13952;BME280;39535;52.192;9.886;2023-08-20T00:44:36;100913.19;;;22.36;100.00
13952;BME280;39535;52.192;9.886;2023-08-20T00:47:04;100922.94;;;22.35;100.00
13952;BME280;39535;52.192;9.886;2023-08-20T00:49:31;100935.09;;;22.39;100.00
13952;BME280;39535;52.192;9.886;2023-08-20T00:51:59;100938.09;;;22.19;100.00
13952;BME280;39535;52.192;9.886;2023-08-20T00:54:26;100910.75;;;21.87;100.00
13952;BME280;39535;52.192;9.886;2023-08-20T00:56:54;100911.69;;;21.86;100.00
13952;BME280;39535;52.192;9.886;2023-08-20T00:59:20;100920.31;;;22.19;100.00
13952;BME280;39535;52.192;9.886;2023-08-20T01:01:47;100931.16;;;22.16;100.00
13952;BME280;39535;52.192;9.886;2023-08-20T01:04:15;100936.25;;;22.05;100.00
13952;BME280;39535;52.192;9.886;2023-08-20T01:06:46;100922.88;;;22.07;100.00
13952;BME280;39535;52.192;9.886;2023-08-20T01:09:22;100928.88;;;22.10;100.00
13952;BME280;39535;52.192;9.886;2023-08-20T01:11:56;100937.25;;;22.18;100.00
13952;BME280;39535;52.192;9.886;2023-08-20T01:14:24;100946.56;;;21.95;100.00
13952;BME280;39535;52.192;9.886;2023-08-20T01:16:50;100927.03;;;21.96;100.00
13952;BME280;39535;52.192;9.886;2023-08-20T01:19:20;100931.41;;;22.12;100.00
13952;BME280;39535;52.192;9.886;2023-08-20T01:21:56;100937.97;;;22.06;100.00
13952;BME280;39535;52.192;9.886;2023-08-20T01:24:45;100932.16;;;21.99;100.00
13952;BME280;39535;52.192;9.886;2023-08-20T01:27:26;100936.22;;;21.91;100.00
13952;BME280;39535;52.192;9.886;2023-08-20T01:29:56;100947.53;;;21.94;100.00
13952;BME280;39535;52.192;9.886;2023-08-20T01:32:23;100940.09;;;21.85;100.00
13952;BME280;39535;52.192;9.886;2023-08-20T01:34:52;100938.06;;;22.05;100.00
13952;BME280;39535;52.192;9.886;2023-08-20T01:37:18;100949.88;;;22.15;100.00
13952;BME280;39535;52.192;9.886;2023-08-20T01:39:45;100967.19;;;22.22;100.00
13952;BME280;39535;52.192;9.886;2023-08-20T01:42:11;100984.97;;;22.06;100.00
13952;BME280;39535;52.192;9.886;2023-08-20T01:44:38;100988.56;;;22.05;100.00
13952;BME280;39535;52.192;9.886;2023-08-20T01:47:06;100999.97;;;22.07;100.00
13952;BME280;39535;52.192;9.886;2023-08-20T01:49:32;101024.69;;;22.09;100.00
13952;BME280;39535;52.192;9.886;2023-08-20T01:51:58;101037.44;;;22.18;100.00
13952;BME280;39535;52.192;9.886;2023-08-20T01:54:25;101051.59;;;22.18;100.00
13952;BME280;39535;52.192;9.886;2023-08-20T01:56:51;101070.44;;;22.14;100.00
13952;BME280;39535;52.192;9.886;2023-08-20T01:59:18;101068.41;;;22.19;100.00
13952;BME280;39535;52.192;9.886;2023-08-20T02:01:45;101082.91;;;22.13;100.00
13952;BME280;39535;52.192;9.886;2023-08-20T02:04:12;101079.75;;;21.91;100.00
13952;BME280;39535;52.192;9.886;2023-08-20T02:06:39;101065.09;;;21.84;100.00
13952;BME280;39535;52.192;9.886;2023-08-20T02:09:05;101055.41;;;21.67;100.00
13952;BME280;39535;52.192;9.886;2023-08-20T02:11:32;101009.50;;;21.31;100.00
13952;BME280;39535;52.192;9.886;2023-08-20T02:14:01;100979.75;;;21.25;100.00
13952;BME280;39535;52.192;9.886;2023-08-20T02:16:27;100957.16;;;21.33;100.00
13952;BME280;39535;52.192;9.886;2023-08-20T02:18:54;100955.44;;;21.32;100.00
13952;BME280;39535;52.192;9.886;2023-08-20T02:21:22;100949.88;;;21.37;100.00
13952;BME280;39535;52.192;9.886;2023-08-20T02:23:49;100955.44;;;21.32;100.00
13952;BME280;39535;52.192;9.886;2023-08-20T02:26:15;100964.84;;;21.22;100.00
13952;BME280;39535;52.192;9.886;2023-08-20T02:28:42;100974.97;;;21.15;100.00
13952;BME280;39535;52.192;9.886;2023-08-20T02:31:08;100973.25;;;21.14;100.00
13952;BME280;39535;52.192;9.886;2023-08-20T02:33:35;100972.03;;;21.04;100.00
13952;BME280;39535;52.192;9.886;2023-08-20T02:36:02;100973.03;;;20.86;100.00
13952;BME280;39535;52.192;9.886;2023-08-20T02:38:30;100963.41;;;20.83;100.00
13952;BME280;39535;52.192;9.886;2023-08-20T02:40:57;100942.81;;;20.88;100.00
13952;BME280;39535;52.192;9.886;2023-08-20T02:43:23;100943.59;;;20.90;100.00
13952;BME280;39535;52.192;9.886;2023-08-20T02:45:50;100947.34;;;20.86;100.00
13952;BME280;39535;52.192;9.886;2023-08-20T02:48:17;100944.00;;;20.82;100.00
13952;BME280;39535;52.192;9.886;2023-08-20T02:50:44;100930.66;;;20.84;100.00
13952;BME280;39535;52.192;9.886;2023-08-20T02:53:11;100938.19;;;20.92;100.00
13952;BME280;39535;52.192;9.886;2023-08-20T02:55:39;100979.00;;;21.38;100.00
13952;BME280;39535;52.192;9.886;2023-08-20T02:58:05;101014.78;;;21.49;100.00
13952;BME280;39535;52.192;9.886;2023-08-20T03:00:33;101019.22;;;21.48;100.00
13952;BME280;39535;52.192;9.886;2023-08-20T03:02:59;101028.22;;;21.61;100.00
13952;BME280;39535;52.192;9.886;2023-08-20T03:05:27;101035.69;;;21.71;100.00
13952;BME280;39535;52.192;9.886;2023-08-20T03:07:54;101052.66;;;21.68;100.00
13952;BME280;39535;52.192;9.886;2023-08-20T03:10:20;101081.28;;;21.63;100.00
13952;BME280;39535;52.192;9.886;2023-08-20T03:12:48;101082.66;;;21.70;100.00
13952;BME280;39535;52.192;9.886;2023-08-20T03:15:15;101074.38;;;21.76;100.00
13952;BME280;39535;52.192;9.886;2023-08-20T03:17:41;101068.78;;;21.81;100.00
13952;BME280;39535;52.192;9.886;2023-08-20T03:20:09;101077.44;;;21.85;100.00
13952;BME280;39535;52.192;9.886;2023-08-20T03:22:37;101080.94;;;21.85;100.00
13952;BME280;39535;52.192;9.886;2023-08-20T03:25:04;101089.63;;;21.89;100.00
13952;BME280;39535;52.192;9.886;2023-08-20T03:27:31;101098.44;;;21.89;100.00
13952;BME280;39535;52.192;9.886;2023-08-20T03:29:59;101107.19;;;21.91;100.00
13952;BME280;39535;52.192;9.886;2023-08-20T03:32:25;101108.91;;;21.92;99.87
13952;BME280;39535;52.192;9.886;2023-08-20T03:34:52;101140.28;;;21.86;97.94
13952;BME280;39535;52.192;9.886;2023-08-20T03:37:19;101176.97;;;21.79;95.40
13952;BME280;39535;52.192;9.886;2023-08-20T03:39:45;101183.75;;;21.85;95.82
13952;BME280;39535;52.192;9.886;2023-08-20T03:42:12;101178.25;;;21.88;96.32
13952;BME280;39535;52.192;9.886;2023-08-20T03:44:39;101160.44;;;21.90;97.27
13952;BME280;39535;52.192;9.886;2023-08-20T03:47:06;101141.81;;;21.90;98.30
13952;BME280;39535;52.192;9.886;2023-08-20T03:49:33;101134.72;;;21.90;98.43
13952;BME280;39535;52.192;9.886;2023-08-20T03:51:59;101143.63;;;21.89;98.39
13952;BME280;39535;52.192;9.886;2023-08-20T03:54:27;101150.69;;;21.90;97.92
13952;BME280;39535;52.192;9.886;2023-08-20T03:56:53;101150.75;;;21.89;97.56
13952;BME280;39535;52.192;9.886;2023-08-20T03:59:20;101159.56;;;21.89;97.36
13952;BME280;39535;52.192;9.886;2023-08-20T04:01:46;101158.81;;;21.87;97.26
13952;BME280;39535;52.192;9.886;2023-08-20T04:04:15;101161.47;;;21.87;97.76
13952;BME280;39535;52.192;9.886;2023-08-20T04:06:42;101164.28;;;21.84;97.62
13952;BME280;39535;52.192;9.886;2023-08-20T04:09:08;101194.91;;;21.58;95.65
13952;BME280;39535;52.192;9.886;2023-08-20T04:11:36;101201.31;;;21.36;96.36
13952;BME280;39535;52.192;9.886;2023-08-20T04:14:02;101188.44;;;21.29;96.60
13952;BME280;39535;52.192;9.886;2023-08-20T04:16:29;101176.63;;;21.34;97.52
13952;BME280;39535;52.192;9.886;2023-08-20T04:18:56;101195.25;;;21.17;96.82
13952;BME280;39535;52.192;9.886;2023-08-20T04:21:24;101188.59;;;20.91;97.46
13952;BME280;39535;52.192;9.886;2023-08-20T04:23:50;101165.41;;;20.77;98.40
13952;BME280;39535;52.192;9.886;2023-08-20T04:26:17;101122.94;;;20.77;100.00
13952;BME280;39535;52.192;9.886;2023-08-20T04:28:44;101080.81;;;20.88;100.00
13952;BME280;39535;52.192;9.886;2023-08-20T04:31:10;101082.69;;;20.86;100.00
13952;BME280;39535;52.192;9.886;2023-08-20T04:33:37;101124.13;;;20.71;100.00
13952;BME280;39535;52.192;9.886;2023-08-20T04:36:03;101101.44;;;20.66;100.00
13952;BME280;39535;52.192;9.886;2023-08-20T04:38:31;101107.47;;;20.50;100.00
13952;BME280;39535;52.192;9.886;2023-08-20T04:40:58;101080.41;;;20.61;100.00
13952;BME280;39535;52.192;9.886;2023-08-20T04:43:24;101047.09;;;20.73;100.00
13952;BME280;39535;52.192;9.886;2023-08-20T04:45:51;101054.34;;;20.87;100.00
13952;BME280;39535;52.192;9.886;2023-08-20T04:48:17;101058.16;;;20.98;100.00
13952;BME280;39535;52.192;9.886;2023-08-20T04:50:44;101063.06;;;21.06;100.00
13952;BME280;39535;52.192;9.886;2023-08-20T04:53:10;101080.28;;;21.15;100.00
13952;BME280;39535;52.192;9.886;2023-08-20T04:55:38;101099.44;;;21.21;100.00
13952;BME280;39535;52.192;9.886;2023-08-20T04:58:04;101114.19;;;21.27;100.00
13952;BME280;39535;52.192;9.886;2023-08-20T05:00:31;101137.06;;;21.30;100.00
13952;BME280;39535;52.192;9.886;2023-08-20T05:02:57;101141.44;;;21.31;99.63
13952;BME280;39535;52.192;9.886;2023-08-20T05:05:24;101156.34;;;21.33;99.26
13952;BME280;39535;52.192;9.886;2023-08-20T05:07:51;101178.63;;;21.31;98.38
13952;BME280;39535;52.192;9.886;2023-08-20T05:10:17;101175.84;;;21.32;98.46
13952;BME280;39535;52.192;9.886;2023-08-20T05:12:46;101184.47;;;21.37;98.15
13952;BME280;39535;52.192;9.886;2023-08-20T05:15:13;101175.38;;;21.41;98.86
13952;BME280;39535;52.192;9.886;2023-08-20T05:17:39;101162.97;;;21.42;98.83
13952;BME280;39535;52.192;9.886;2023-08-20T05:20:07;101173.53;;;21.44;97.96
13952;BME280;39535;52.192;9.886;2023-08-20T05:22:35;101200.94;;;21.44;96.84
13952;BME280;39535;52.192;9.886;2023-08-20T05:25:01;101194.47;;;21.50;97.15
13952;BME280;39535;52.192;9.886;2023-08-20T05:27:28;101175.03;;;21.49;97.93
13952;BME280;39535;52.192;9.886;2023-08-20T05:29:55;101165.16;;;21.51;98.44
13952;BME280;39535;52.192;9.886;2023-08-20T05:32:22;101184.22;;;21.42;97.75
13952;BME280;39535;52.192;9.886;2023-08-20T05:34:48;101186.13;;;21.05;98.64
13952;BME280;39535;52.192;9.886;2023-08-20T05:37:15;101158.88;;;20.84;99.81
13952;BME280;39535;52.192;9.886;2023-08-20T05:39:43;101135.75;;;20.86;100.00
13952;BME280;39535;52.192;9.886;2023-08-20T05:42:10;101102.19;;;20.85;100.00
13952;BME280;39535;52.192;9.886;2023-08-20T05:44:37;101138.41;;;20.69;99.61
13952;BME280;39535;52.192;9.886;2023-08-20T05:47:05;101121.00;;;20.63;100.00
13952;BME280;39535;52.192;9.886;2023-08-20T05:49:31;101094.06;;;20.71;100.00
13952;BME280;39535;52.192;9.886;2023-08-20T05:51:58;101099.25;;;20.74;100.00
13952;BME280;39535;52.192;9.886;2023-08-20T05:54:24;101066.22;;;20.79;100.00
13952;BME280;39535;52.192;9.886;2023-08-20T05:56:51;101050.44;;;20.94;100.00
13952;BME280;39535;52.192;9.886;2023-08-20T05:59:17;101036.50;;;21.06;100.00
13952;BME280;39535;52.192;9.886;2023-08-20T06:01:44;101050.09;;;21.17;100.00
13952;BME280;39535;52.192;9.886;2023-08-20T06:04:12;101069.19;;;21.24;100.00
13952;BME280;39535;52.192;9.886;2023-08-20T06:06:38;101079.47;;;21.30;100.00
13952;BME280;39535;52.192;9.886;2023-08-20T06:09:05;101080.03;;;21.37;100.00
13952;BME280;39535;52.192;9.886;2023-08-20T06:11:32;101081.47;;;21.42;100.00
13952;BME280;39535;52.192;9.886;2023-08-20T06:13:58;101088.38;;;21.47;100.00
13952;BME280;39535;52.192;9.886;2023-08-20T06:16:25;101087.59;;;21.45;100.00
13952;BME280;39535;52.192;9.886;2023-08-20T06:18:51;101100.78;;;21.46;100.00
13952;BME280;39535;52.192;9.886;2023-08-20T06:21:19;101132.22;;;21.20;99.80
13952;BME280;39535;52.192;9.886;2023-08-20T06:23:45;101130.25;;;21.24;99.67
13952;BME280;39535;52.192;9.886;2023-08-20T06:26:12;101116.50;;;21.33;100.00
13952;BME280;39535;52.192;9.886;2023-08-20T06:28:38;101103.16;;;21.35;100.00
13952;BME280;39535;52.192;9.886;2023-08-20T06:31:05;101099.88;;;21.30;100.00
13952;BME280;39535;52.192;9.886;2023-08-20T06:33:31;101115.88;;;21.28;100.00
13952;BME280;39535;52.192;9.886;2023-08-20T06:35:58;101103.16;;;21.35;100.00
13952;BME280;39535;52.192;9.886;2023-08-20T06:38:26;101064.63;;;20.93;100.00
13952;BME280;39535;52.192;9.886;2023-08-20T06:40:52;101012.13;;;20.82;100.00
13952;BME280;39535;52.192;9.886;2023-08-20T06:43:19;100993.03;;;20.75;100.00
13952;BME280;39535;52.192;9.886;2023-08-20T06:45:45;100990.53;;;20.72;100.00
13952;BME280;39535;52.192;9.886;2023-08-20T06:48:12;100969.22;;;20.74;100.00
13952;BME280;39535;52.192;9.886;2023-08-20T06:50:38;100975.00;;;20.65;100.00
13952;BME280;39535;52.192;9.886;2023-08-20T06:53:05;100973.91;;;20.69;100.00
13952;BME280;39535;52.192;9.886;2023-08-20T06:55:33;101006.38;;;20.74;100.00
13952;BME280;39535;52.192;9.886;2023-08-20T06:58:00;101079.66;;;20.76;100.00
13952;BME280;39535;52.192;9.886;2023-08-20T07:00:26;101043.78;;;21.02;100.00
13952;BME280;39535;52.192;9.886;2023-08-20T07:02:53;101111.94;;;20.85;100.00
13952;BME280;39535;52.192;9.886;2023-08-20T07:05:19;101125.47;;;20.97;99.40
13952;BME280;39535;52.192;9.886;2023-08-20T07:07:46;101132.00;;;21.08;100.00
13952;BME280;39535;52.192;9.886;2023-08-20T07:10:12;101110.59;;;21.11;100.00
13952;BME280;39535;52.192;9.886;2023-08-20T07:12:40;101146.97;;;21.09;100.00
13952;BME280;39535;52.192;9.886;2023-08-20T07:15:07;101170.00;;;21.60;98.30
13952;BME280;39535;52.192;9.886;2023-08-20T07:17:34;101199.41;;;21.73;96.73
13952;BME280;39535;52.192;9.886;2023-08-20T07:20:00;101229.78;;;21.85;94.71
13952;BME280;39535;52.192;9.886;2023-08-20T07:22:28;101258.25;;;21.83;92.57
13952;BME280;39535;52.192;9.886;2023-08-20T07:24:54;101296.56;;;21.96;91.98
13952;BME280;39535;52.192;9.886;2023-08-20T07:27:21;101214.47;;;21.57;98.14
13952;BME280;39535;52.192;9.886;2023-08-20T07:29:49;101143.47;;;21.43;100.00
13952;BME280;39535;52.192;9.886;2023-08-20T07:32:15;101080.94;;;21.36;100.00
13952;BME280;39535;52.192;9.886;2023-08-20T07:34:41;101090.97;;;21.31;100.00
13952;BME280;39535;52.192;9.886;2023-08-20T07:37:08;101085.56;;;21.32;100.00
13952;BME280;39535;52.192;9.886;2023-08-20T07:39:34;101104.78;;;21.71;100.00
13952;BME280;39535;52.192;9.886;2023-08-20T07:42:01;101277.31;;;21.91;90.09
13952;BME280;39535;52.192;9.886;2023-08-20T07:44:28;101319.91;;;22.07;91.13
13952;BME280;39535;52.192;9.886;2023-08-20T07:46:56;101455.97;;;22.15;83.71
13952;BME280;39535;52.192;9.886;2023-08-20T07:49:22;101505.97;;;22.09;82.64
13952;BME280;39535;52.192;9.886;2023-08-20T07:51:49;101503.03;;;21.78;83.08
13952;BME280;39535;52.192;9.886;2023-08-20T07:54:17;101521.53;;;21.80;83.13
13952;BME280;39535;52.192;9.886;2023-08-20T07:56:44;101533.06;;;21.80;81.85
13952;BME280;39535;52.192;9.886;2023-08-20T07:59:10;101528.88;;;22.11;81.80
13952;BME280;39535;52.192;9.886;2023-08-20T08:01:36;101535.63;;;22.53;80.79
13952;BME280;39535;52.192;9.886;2023-08-20T08:04:05;101495.69;;;22.71;83.71
13952;BME280;39535;52.192;9.886;2023-08-20T08:06:31;101519.34;;;22.77;81.41
13952;BME280;39535;52.192;9.886;2023-08-20T08:09:18;101533.66;;;22.92;80.96
13952;BME280;39535;52.192;9.886;2023-08-20T08:11:44;101523.69;;;22.95;81.55
13952;BME280;39535;52.192;9.886;2023-08-20T08:14:11;101489.84;;;22.97;82.43
13952;BME280;39535;52.192;9.886;2023-08-20T08:16:38;101410.13;;;22.94;85.54
13952;BME280;39535;52.192;9.886;2023-08-20T08:19:05;101462.13;;;23.02;83.04
13952;BME280;39535;52.192;9.886;2023-08-20T08:21:32;101574.03;;;23.00;76.20
13952;BME280;39535;52.192;9.886;2023-08-20T08:23:58;101617.38;;;23.04;76.18
13952;BME280;39535;52.192;9.886;2023-08-20T08:26:25;101666.50;;;23.15;74.41
13952;BME280;39535;52.192;9.886;2023-08-20T08:28:51;101588.78;;;22.72;80.70
13952;BME280;39535;52.192;9.886;2023-08-20T08:31:18;101602.47;;;22.99;76.53
13952;BME280;39535;52.192;9.886;2023-08-20T08:33:44;101594.59;;;23.31;76.85
13952;BME280;39535;52.192;9.886;2023-08-20T08:36:12;101633.13;;;23.42;75.28
13952;BME280;39535;52.192;9.886;2023-08-20T08:38:40;101598.59;;;23.56;77.21
13952;BME280;39535;52.192;9.886;2023-08-20T08:41:10;101625.16;;;23.57;74.11
13952;BME280;39535;52.192;9.886;2023-08-20T08:43:38;101652.41;;;23.63;74.72
13952;BME280;39535;52.192;9.886;2023-08-20T08:46:06;101673.25;;;23.72;73.35
13952;BME280;39535;52.192;9.886;2023-08-20T08:48:34;101700.63;;;23.75;72.52
13952;BME280;39535;52.192;9.886;2023-08-20T08:51:01;101761.94;;;23.75;70.90
13952;BME280;39535;52.192;9.886;2023-08-20T08:53:30;101759.19;;;23.77;71.33
13952;BME280;39535;52.192;9.886;2023-08-20T08:55:58;101761.38;;;23.86;71.75
13952;BME280;39535;52.192;9.886;2023-08-20T08:58:25;101728.03;;;23.95;71.98
13952;BME280;39535;52.192;9.886;2023-08-20T09:00:52;101794.00;;;23.91;68.94
13952;BME280;39535;52.192;9.886;2023-08-20T09:03:19;101821.63;;;23.90;66.89
13952;BME280;39535;52.192;9.886;2023-08-20T09:05:46;101857.97;;;23.93;67.22
13952;BME280;39535;52.192;9.886;2023-08-20T09:08:19;101804.03;;;24.04;70.64
13952;BME280;39535;52.192;9.886;2023-08-20T09:10:49;101759.34;;;23.91;69.67
13952;BME280;39535;52.192;9.886;2023-08-20T09:13:16;101759.69;;;23.68;69.44
13952;BME280;39535;52.192;9.886;2023-08-20T09:15:42;101779.13;;;23.70;69.90
13952;BME280;39535;52.192;9.886;2023-08-20T09:18:09;101777.50;;;23.85;69.59
13952;BME280;39535;52.192;9.886;2023-08-20T09:20:36;101711.25;;;23.93;75.42
13952;BME280;39535;52.192;9.886;2023-08-20T09:23:03;101784.13;;;23.93;68.62
13952;BME280;39535;52.192;9.886;2023-08-20T09:25:30;101711.50;;;24.04;70.97
13952;BME280;39535;52.192;9.886;2023-08-20T09:28:02;101616.59;;;24.16;73.64
13952;BME280;39535;52.192;9.886;2023-08-20T09:30:29;101713.25;;;24.21;70.07
13952;BME280;39535;52.192;9.886;2023-08-20T09:33:07;101754.75;;;24.27;68.93
13952;BME280;39535;52.192;9.886;2023-08-20T09:35:34;101870.88;;;24.34;64.86
13952;BME280;39535;52.192;9.886;2023-08-20T09:38:01;101654.84;;;24.63;75.11
13952;BME280;39535;52.192;9.886;2023-08-20T09:40:28;101630.66;;;24.34;72.19
13952;BME280;39535;52.192;9.886;2023-08-20T09:42:57;101768.47;;;24.52;64.85
13952;BME280;39535;52.192;9.886;2023-08-20T09:45:24;101901.44;;;24.62;61.34
13952;BME280;39535;52.192;9.886;2023-08-20T09:47:55;101990.97;;;24.69;59.61
13952;BME280;39535;52.192;9.886;2023-08-20T09:50:22;101993.22;;;24.76;60.33
13952;BME280;39535;52.192;9.886;2023-08-20T09:53:02;101953.13;;;24.61;58.40
13952;BME280;39535;52.192;9.886;2023-08-20T09:55:32;102097.47;;;24.75;56.28
13952;BME280;39535;52.192;9.886;2023-08-20T09:58:02;102042.78;;;24.82;59.32
13952;BME280;39535;52.192;9.886;2023-08-20T10:00:31;102067.09;;;24.93;58.22
13952;BME280;39535;52.192;9.886;2023-08-20T10:02:58;102013.59;;;24.95;60.69
13952;BME280;39535;52.192;9.886;2023-08-20T10:05:26;101991.88;;;25.01;60.57
13952;BME280;39535;52.192;9.886;2023-08-20T10:07:54;102084.78;;;24.96;55.19
13952;BME280;39535;52.192;9.886;2023-08-20T10:10:21;102106.13;;;25.13;56.55
13952;BME280;39535;52.192;9.886;2023-08-20T10:12:49;102058.88;;;25.14;55.16
13952;BME280;39535;52.192;9.886;2023-08-20T10:15:17;102073.63;;;25.21;60.83
13952;BME280;39535;52.192;9.886;2023-08-20T10:17:44;101942.59;;;25.23;60.86
13952;BME280;39535;52.192;9.886;2023-08-20T10:20:13;101925.00;;;25.18;59.80
13952;BME280;39535;52.192;9.886;2023-08-20T10:22:41;102031.31;;;25.13;54.64
13952;BME280;39535;52.192;9.886;2023-08-20T10:25:09;102101.31;;;25.20;53.92
13952;BME280;39535;52.192;9.886;2023-08-20T10:27:37;102101.44;;;25.34;58.57
13952;BME280;39535;52.192;9.886;2023-08-20T10:30:08;102125.53;;;25.50;55.13
13952;BME280;39535;52.192;9.886;2023-08-20T10:32:46;102089.22;;;25.62;60.22
13952;BME280;39535;52.192;9.886;2023-08-20T10:35:15;102123.81;;;25.49;54.11
13952;BME280;39535;52.192;9.886;2023-08-20T10:38:03;102187.59;;;25.57;52.15
13952;BME280;39535;52.192;9.886;2023-08-20T10:40:51;102260.66;;;25.58;50.32
13952;BME280;39535;52.192;9.886;2023-08-20T10:43:32;102267.53;;;25.79;51.15
13952;BME280;39535;52.192;9.886;2023-08-20T10:46:16;102242.91;;;25.88;52.16
13952;BME280;39535;52.192;9.886;2023-08-20T10:48:47;102279.09;;;25.80;49.54
13952;BME280;39535;52.192;9.886;2023-08-20T10:51:15;102287.47;;;25.89;51.23
13952;BME280;39535;52.192;9.886;2023-08-20T10:53:43;102181.59;;;26.01;58.77
13952;BME280;39535;52.192;9.886;2023-08-20T10:56:15;101850.88;;;25.52;68.49
13952;BME280;39535;52.192;9.886;2023-08-20T10:58:44;101972.63;;;25.28;52.75
13952;BME280;39535;52.192;9.886;2023-08-20T11:01:15;102109.31;;;25.38;52.76
13952;BME280;39535;52.192;9.886;2023-08-20T11:03:44;102162.72;;;25.39;52.33
13952;BME280;39535;52.192;9.886;2023-08-20T11:06:11;102179.72;;;25.54;53.35
13952;BME280;39535;52.192;9.886;2023-08-20T11:08:38;102163.75;;;25.68;52.91
13952;BME280;39535;52.192;9.886;2023-08-20T11:11:06;102178.53;;;25.75;52.23
13952;BME280;39535;52.192;9.886;2023-08-20T11:13:33;102149.19;;;25.90;54.83
13952;BME280;39535;52.192;9.886;2023-08-20T11:16:00;102031.44;;;26.06;56.72
13952;BME280;39535;52.192;9.886;2023-08-20T11:18:28;101879.66;;;26.22;63.76
13952;BME280;39535;52.192;9.886;2023-08-20T11:20:57;101923.25;;;26.10;53.64
13952;BME280;39535;52.192;9.886;2023-08-20T11:23:24;102100.69;;;26.12;51.58
13952;BME280;39535;52.192;9.886;2023-08-20T11:25:50;102092.75;;;26.41;54.50
13952;BME280;39535;52.192;9.886;2023-08-20T11:28:17;102074.81;;;26.57;53.90
13952;BME280;39535;52.192;9.886;2023-08-20T11:30:45;102122.53;;;26.66;53.32
13952;BME280;39535;52.192;9.886;2023-08-20T11:33:12;102057.75;;;26.88;55.42
13952;BME280;39535;52.192;9.886;2023-08-20T11:35:41;102047.50;;;27.38;57.20
13952;BME280;39535;52.192;9.886;2023-08-20T11:38:09;101974.47;;;28.66;57.58
13952;BME280;39535;52.192;9.886;2023-08-20T11:40:36;102054.16;;;30.15;47.69
13952;BME280;39535;52.192;9.886;2023-08-20T11:43:02;102331.00;;;30.85;42.78
13952;BME280;39535;52.192;9.886;2023-08-20T11:45:30;102428.00;;;32.05;44.06
13952;BME280;39535;52.192;9.886;2023-08-20T11:47:57;102397.69;;;33.34;43.92
13952;BME280;39535;52.192;9.886;2023-08-20T11:50:24;102458.84;;;34.73;39.90
13952;BME280;39535;52.192;9.886;2023-08-20T11:52:52;102605.84;;;35.78;37.47
13952;BME280;39535;52.192;9.886;2023-08-20T11:55:23;102685.13;;;36.32;37.16
13952;BME280;39535;52.192;9.886;2023-08-20T11:57:51;102694.38;;;36.59;35.87
13952;BME280;39535;52.192;9.886;2023-08-20T12:00:24;102722.91;;;36.55;34.81
13952;BME280;39535;52.192;9.886;2023-08-20T12:02:52;102727.94;;;36.30;34.39
13952;BME280;39535;52.192;9.886;2023-08-20T12:05:19;102715.91;;;36.23;35.27
13952;BME280;39535;52.192;9.886;2023-08-20T12:07:54;102648.56;;;36.54;35.40
13952;BME280;39535;52.192;9.886;2023-08-20T12:10:23;102634.00;;;36.65;36.00
13952;BME280;39535;52.192;9.886;2023-08-20T12:12:50;102562.47;;;36.16;38.31
13952;BME280;39535;52.192;9.886;2023-08-20T12:15:17;102613.84;;;35.70;34.85
13952;BME280;39535;52.192;9.886;2023-08-20T12:17:43;102628.72;;;35.66;36.11
13952;BME280;39535;52.192;9.886;2023-08-20T12:20:10;102619.97;;;34.81;34.89
13952;BME280;39535;52.192;9.886;2023-08-20T12:22:38;102643.63;;;33.84;36.42
13952;BME280;39535;52.192;9.886;2023-08-20T12:25:05;102570.03;;;33.13;37.57
13952;BME280;39535;52.192;9.886;2023-08-20T12:27:33;102536.19;;;32.84;38.07
13952;BME280;39535;52.192;9.886;2023-08-20T12:30:00;102506.56;;;31.67;39.47
13952;BME280;39535;52.192;9.886;2023-08-20T12:32:26;102454.72;;;31.26;39.89
13952;BME280;39535;52.192;9.886;2023-08-20T12:34:53;102374.97;;;31.58;40.52
13952;BME280;39535;52.192;9.886;2023-08-20T12:37:19;102350.16;;;31.53;41.56
13952;BME280;39535;52.192;9.886;2023-08-20T12:39:46;102329.69;;;31.73;41.55
13952;BME280;39535;52.192;9.886;2023-08-20T12:42:12;102360.59;;;31.46;39.17
13952;BME280;39535;52.192;9.886;2023-08-20T12:44:40;102355.06;;;31.47;40.29
13952;BME280;39535;52.192;9.886;2023-08-20T12:47:07;102338.41;;;31.65;41.81